Aviation Digital Data Service (ADDS)

Output produced by METARs form (1102 UTC 07 July 2015)
found at http://www.aviationweather.gov/adds/metars/
 
KFIG 071054Z AUTO 20005KT 5SM BR FEW006 BKN013 OVC075 20/19 A3005 RMK AO2 SLP167 T02000189
KFIG 071042Z AUTO 19004KT 4SM BR FEW006 BKN014 OVC070 20/19 A3005 RMK AO2 T02000189
KFIG 070954Z AUTO 19006KT 8SM OVC013 20/19 A3005 RMK AO2 SLP167 T02000189
KFIG 070939Z AUTO 19006KT 8SM OVC013 20/19 A3005 RMK AO2 T02000189
KFIG 070907Z AUTO 20005KT 8SM FEW006 BKN017 19/19 A3004 RMK AO2 T01940189
KFIG 070854Z AUTO 19005KT 5SM BR OVC018 19/19 A3004 RMK AO2 SLP164 T01940189 53001 TSNO
KFIG 070826Z AUTO 19005KT 7SM SCT008 SCT012 OVC019 20/19 A3004 RMK AO2 T02000189
KFIG 070823Z AUTO 19004KT 7SM BKN010 OVC019 20/19 A3004 RMK AO2 CIG 007V014 T02000189
KFIG 070754Z AUTO 22003KT 6SM BR OVC007 20/19 A3004 RMK AO2 CIG 006V012 SLP164 T02000189
KFIG 070746Z AUTO 00000KT 5SM BR OVC007 20/19 A3004 RMK AO2 T02000189
KFIG 070738Z AUTO 00000KT 2SM BR OVC007 19/19 A3004 RMK AO2 T01940189
KFIG 070722Z AUTO 00000KT 1/2SM FG VV007 19/19 A3004 RMK AO2 T01940189
KFIG 070712Z AUTO 18003KT 1 1/2SM BR BKN005 OVC011 19/19 A3004 RMK AO2 T01940189
KFIG 070701Z AUTO 00000KT 3/4SM BR BKN004 OVC012 19/19 A3003 RMK AO2 T01940189
KFIG 070654Z AUTO 00000KT 3/4SM BR BKN006 OVC012 19/19 A3003 RMK AO2 SLP159 T01940189
KFIG 070645Z AUTO 00000KT 2SM BR BKN009 OVC012 19/19 A3003 RMK AO2 T01940189
KFIG 070627Z AUTO 35003KT 1/2SM FG BKN009 OVC017 19/19 A3004 RMK AO2 T01940189
KFIG 070619Z AUTO 00000KT 1/2SM FG BKN010 OVC018 19/19 A3004 RMK AO2 T01940189
KFIG 070607Z AUTO 00000KT 3/4SM BR FEW010 BKN018 OVC080 19/19 A3004 RMK AO2 T01940189
KFIG 070602Z AUTO 00000KT 1 3/4SM BR FEW010 BKN014 OVC080 19/19 A3004 RMK AO2 T01940189
KFIG 070554Z AUTO 00000KT 3SM BR SCT010 BKN014 BKN085 19/19 A3004 RMK AO2 SLP163 60000 T01940189 10228 20194 56005
KFIG 070548Z AUTO 00000KT 3SM BR BKN014 BKN080 19/18 A3004 RMK AO2
KFIG 070542Z AUTO 00000KT 1SM BR BKN014 19/18 A3004 RMK AO2 T01940183
KFIG 070536Z AUTO 00000KT 3/4SM BR FEW006 BKN014 20/19 A3004 RMK AO2 T02000189
KFIG 070533Z AUTO 00000KT 1SM BR FEW006 SCT011 BKN017 20/19 A3004 RMK AO2 VIS 1/2V2 1/2 T02000189
KFIG 070520Z AUTO 00000KT 3/4SM BR SCT006 BKN017 19/19 A3004 RMK AO2 T01940189
KFIG 070512Z AUTO 00000KT 3/4SM BR SCT002 SCT018 BKN045 20/19 A3004 RMK AO2 T02000189
KFIG 070507Z AUTO 00000KT 1 1/4SM BR SCT002 SCT018 BKN028 20/19 A3004 RMK AO2 VIS 1/2V5 T02000189
KFIG 070504Z AUTO 00000KT 2 1/2SM BR SCT002 BKN030 BKN046 20/19 A3004 RMK AO2 VIS 1 1/4V5 T02000189
KFIG 070454Z AUTO 00000KT 9SM FEW029 BKN043 BKN050 20/19 A3004 RMK AO2 SLP164 T02000189 402500156
KFIG 070407Z AUTO 34003KT 8SM FEW014 BKN034 OVC050 20/19 A3005 RMK AO2 T02000189
KFIG 070359Z AUTO 36003KT 2SM BR SCT032 BKN045 BKN055 20/19 A3005 RMK AO2 T02000189
KFIG 070354Z AUTO 36003KT 3/4SM BR SCT034 BKN048 OVC055 20/19 A3005 RMK AO2 SLP168 T02000189
KFIG 070348Z AUTO 01004KT 3/4SM BR FEW034 BKN046 OVC055 20/19 A3005 RMK AO2
KFIG 070254Z AUTO 00000KT 10SM BKN038 21/19 A3006 RMK AO2 SLP170 60000 T02060194 50001
KFIG 070154Z AUTO 00000KT 10SM SCT027 OVC042 22/19 A3006 RMK AO2 SLP173 T02170189
KFIG 070054Z AUTO 00000KT 10SM BKN060 BKN075 22/19 A3006 RMK AO2 RAB23E35 SLP170 P0000 T02220194
KFIG 062354Z AUTO 08003KT 10SM FEW020 BKN032 23/21 A3005 RMK AO2 SLP168 60002 T02280206 10250 20217 57012
KFIG 062254Z AUTO 04003KT 10SM FEW060 24/21 A3007 RMK AO2 SLP174 T02390206
KFIG 062154Z AUTO 08003KT 10SM SCT075 SCT090 23/19 A3008 RMK AO2 SLP178 T02280194
KFIG 062054Z AUTO 00000KT 10SM FEW026 FEW037 SCT060 23/20 A3009 RMK AO2 RAE20 SLP182 P0002 60002 T02330200 56009
KFIG 062012Z AUTO 09003KT 5SM -RA BR SCT028 BKN040 BKN050 22/19 A3010 RMK AO2 P0002 T02170194
KFIG 061954Z AUTO 20006KT 10SM -RA BKN025 BKN029 OVC036 24/19 A3010 RMK AO2 RAB48 SLP185 P0000 T02390189
KFIG 061854Z AUTO VRB04KT 10SM BKN023 BKN055 OVC075 24/19 A3011 RMK AO2 SLP187 T02440189
KFIG 061829Z AUTO VRB05KT 10SM BKN021 BKN030 OVC044 24/19 A3011 RMK AO2 T02390194
KFIG 061820Z AUTO 10008KT 10SM SCT021 BKN034 BKN044 24/19 A3012 RMK AO2 T02440189
KFIG 061754Z AUTO VRB05KT 10SM SCT018 BKN022 OVC028 24/19 A3012 RMK AO2 SLP192 T02440194 10244 20189 58011
KFIG 061654Z AUTO 07004KT 9SM OVC017 22/19 A3014 RMK AO2 SLP201 T02220189
KFIG 061644Z AUTO 06006KT 9SM OVC015 22/19 A3015 RMK AO2 T02170189
KFIG 061554Z AUTO 08003KT 9SM OVC013 22/18 A3015 RMK AO2 SLP204 T02170183
KFIG 061503Z AUTO 09004KT 8SM OVC010 21/18 A3016 RMK AO2 T02110178
KFIG 061454Z AUTO 07004KT 9SM OVC009 21/18 A3015 RMK AO2 SLP204 T02060183 58003
KFIG 061431Z AUTO 03004KT 9SM OVC009 20/18 A3015 RMK AO2 T02000178
KFIG 061354Z AUTO 06004KT 7SM OVC010 19/17 A3015 RMK AO2 CIG 008V012 SLP204 T01940172
KFIG 061320Z AUTO 07004KT 9SM BKN014 BKN018 OVC028 19/17 A3017 RMK AO2 T01940167
KFIG 061254Z AUTO 07005KT 10SM OVC017 19/17 A3017 RMK AO2 SLP208 T01890167
KFIG 061154Z AUTO 09003KT 10SM BKN022 19/16 A3016 RMK AO2 SLP207 T01890161 10189 20156 51007
KFIG 061152Z AUTO 09004KT 10SM BKN022 18/16 A3016 RMK AO2
KFIG 061106Z AUTO 04003KT 10SM SCT020 18/16 A3016 RMK AO2 T01780156
KFIG 061054Z AUTO VRB03KT 10SM BKN020 17/16 A3016 RMK AO2 SLP205 T01720156
KFIG 061016Z AUTO 05008KT 10SM BKN016 OVC021 17/16 A3015 RMK AO2 T01720156
KFIG 060954Z AUTO 05007KT 10SM OVC014 17/16 A3014 RMK AO2 SLP198 T01720156
KFIG 060903Z AUTO 02005KT 7SM FEW020 BKN025 OVC060 16/15 A3014 RMK AO2 T01610150
KFIG 060854Z AUTO 01006KT 7SM SCT027 OVC055 16/15 A3014 RMK AO2 SLP197 T01610150 58003
KFIG 060754Z AUTO 04006KT 9SM BKN020 OVC025 17/16 A3014 RMK AO2 SLP199 T01670156
KFIG 060744Z AUTO 07003KT 9SM BKN020 17/16 A3015 RMK AO2 T01670156
KFIG 060654Z AUTO 01007KT 5SM BR SCT024 SCT048 16/15 A3015 RMK AO2 SLP201 T01560150
KFIG 060624Z AUTO 04007KT 6SM BR CLR 16/15 A3014 RMK AO2 T01610150
KFIG 060605Z AUTO 03007KT 2 1/2SM BR CLR 16/15 A3015 RMK AO2 T01610150
KFIG 060554Z AUTO 02007KT 6SM BR CLR 16/15 A3015 RMK AO2 SLP203 T01610150 10217 20161 58008
KFIG 060454Z AUTO 35005KT 10SM CLR 17/15 A3017 RMK AO2 SLP211 T01670150 402610128
KFIG 060354Z AUTO 01005KT 10SM FEW040 17/16 A3017 RMK AO2 SLP212 T01720156
KFIG 060254Z AUTO 35003KT 10SM CLR 18/16 A3017 RMK AO2 SLP214 T01780156 53006
KFIG 060154Z AUTO 00000KT 10SM CLR 19/16 A3016 RMK AO2 SLP210 T01890161
KFIG 060054Z AUTO 00000KT 10SM CLR 21/16 A3016 RMK AO2 SLP207 T02060161
KFIG 052354Z AUTO 05006KT 10SM CLR 22/15 A3015 RMK AO2 SLP206 T02170150 10261 20217 53001